sensor_id;sensor_type;location;lat;lon;timestamp;temperature;humidity
6256;DHT22;3161;48.794;9.784;2022-11-15T00:00:59;9.10;99.90
6256;DHT22;3161;48.794;9.784;2022-11-15T00:03:28;9.10;99.90
6256;DHT22;3161;48.794;9.784;2022-11-15T00:05:55;9.10;99.90
6256;DHT22;3161;48.794;9.784;2022-11-15T00:08:24;9.10;99.90
6256;DHT22;3161;48.794;9.784;2022-11-15T00:10:59;9.10;99.90
6256;DHT22;3161;48.794;9.784;2022-11-15T00:13:28;9.10;99.90
6256;DHT22;3161;48.794;9.784;2022-11-15T00:16:00;9.10;99.90
6256;DHT22;3161;48.794;9.784;2022-11-15T00:18:29;9.10;99.90
6256;DHT22;3161;48.794;9.784;2022-11-15T00:21:05;9.10;99.90
6256;DHT22;3161;48.794;9.784;2022-11-15T00:23:34;9.10;99.90
6256;DHT22;3161;48.794;9.784;2022-11-15T00:26:01;9.10;99.90
6256;DHT22;3161;48.794;9.784;2022-11-15T00:28:29;9.10;99.90
6256;DHT22;3161;48.794;9.784;2022-11-15T00:31:01;9.20;99.90
6256;DHT22;3161;48.794;9.784;2022-11-15T00:33:29;9.20;99.90
6256;DHT22;3161;48.794;9.784;2022-11-15T00:36:01;9.20;99.90
6256;DHT22;3161;48.794;9.784;2022-11-15T00:38:33;9.20;99.90
6256;DHT22;3161;48.794;9.784;2022-11-15T00:41:01;9.20;99.90
6256;DHT22;3161;48.794;9.784;2022-11-15T00:43:29;9.20;99.90
6256;DHT22;3161;48.794;9.784;2022-11-15T00:45:57;9.20;99.90
6256;DHT22;3161;48.794;9.784;2022-11-15T00:48:24;9.20;99.90
6256;DHT22;3161;48.794;9.784;2022-11-15T00:50:52;9.20;99.90
6256;DHT22;3161;48.794;9.784;2022-11-15T00:53:20;9.20;99.90
6256;DHT22;3161;48.794;9.784;2022-11-15T00:55:47;9.20;99.90
6256;DHT22;3161;48.794;9.784;2022-11-15T00:58:15;9.20;99.90
6256;DHT22;3161;48.794;9.784;2022-11-15T01:00:42;9.20;99.90
6256;DHT22;3161;48.794;9.784;2022-11-15T01:03:10;9.20;99.90
6256;DHT22;3161;48.794;9.784;2022-11-15T01:05:38;9.20;99.90
6256;DHT22;3161;48.794;9.784;2022-11-15T01:08:05;9.20;99.90
6256;DHT22;3161;48.794;9.784;2022-11-15T01:10:33;9.20;99.90
6256;DHT22;3161;48.794;9.784;2022-11-15T01:13:00;9.20;99.90
6256;DHT22;3161;48.794;9.784;2022-11-15T01:15:28;9.20;99.90
6256;DHT22;3161;48.794;9.784;2022-11-15T01:17:55;9.20;99.90
6256;DHT22;3161;48.794;9.784;2022-11-15T01:20:23;9.20;99.90
6256;DHT22;3161;48.794;9.784;2022-11-15T01:22:50;9.20;99.90
6256;DHT22;3161;48.794;9.784;2022-11-15T01:25:18;9.10;99.90
6256;DHT22;3161;48.794;9.784;2022-11-15T01:27:45;9.10;99.90
6256;DHT22;3161;48.794;9.784;2022-11-15T01:30:13;9.10;99.90
6256;DHT22;3161;48.794;9.784;2022-11-15T01:32:40;9.10;99.90
6256;DHT22;3161;48.794;9.784;2022-11-15T01:35:08;9.00;99.90
6256;DHT22;3161;48.794;9.784;2022-11-15T01:37:35;9.00;99.90
6256;DHT22;3161;48.794;9.784;2022-11-15T01:40:04;9.00;99.90
6256;DHT22;3161;48.794;9.784;2022-11-15T01:42:31;9.00;99.90
6256;DHT22;3161;48.794;9.784;2022-11-15T01:44:59;8.90;99.90
6256;DHT22;3161;48.794;9.784;2022-11-15T01:47:33;8.90;99.90
6256;DHT22;3161;48.794;9.784;2022-11-15T01:52:30;8.80;99.90
6256;DHT22;3161;48.794;9.784;2022-11-15T01:55:14;8.80;99.90
6256;DHT22;3161;48.794;9.784;2022-11-15T01:57:40;8.70;99.90
6256;DHT22;3161;48.794;9.784;2022-11-15T02:00:10;8.70;99.90
6256;DHT22;3161;48.794;9.784;2022-11-15T02:02:37;8.60;99.90
6256;DHT22;3161;48.794;9.784;2022-11-15T02:05:06;8.60;99.90
6256;DHT22;3161;48.794;9.784;2022-11-15T02:07:35;8.50;99.90
6256;DHT22;3161;48.794;9.784;2022-11-15T02:10:09;8.50;99.90
6256;DHT22;3161;48.794;9.784;2022-11-15T02:12:37;8.40;99.90
6256;DHT22;3161;48.794;9.784;2022-11-15T02:15:05;8.40;99.90
6256;DHT22;3161;48.794;9.784;2022-11-15T02:20:40;8.30;99.90
6256;DHT22;3161;48.794;9.784;2022-11-15T02:23:35;8.20;99.90
6256;DHT22;3161;48.794;9.784;2022-11-15T02:26:23;8.20;99.90
6256;DHT22;3161;48.794;9.784;2022-11-15T02:31:51;8.10;99.90
6256;DHT22;3161;48.794;9.784;2022-11-15T02:34:25;8.00;99.90
6256;DHT22;3161;48.794;9.784;2022-11-15T02:39:52;7.90;99.90
6256;DHT22;3161;48.794;9.784;2022-11-15T02:42:26;7.80;99.90
6256;DHT22;3161;48.794;9.784;2022-11-15T02:45:11;7.80;99.90
6256;DHT22;3161;48.794;9.784;2022-11-15T02:47:43;7.80;99.90
6256;DHT22;3161;48.794;9.784;2022-11-15T02:50:16;7.70;99.90
6256;DHT22;3161;48.794;9.784;2022-11-15T02:52:50;7.70;99.90
6256;DHT22;3161;48.794;9.784;2022-11-15T02:55:32;7.70;99.90
6256;DHT22;3161;48.794;9.784;2022-11-15T03:00:41;7.60;99.90
6256;DHT22;3161;48.794;9.784;2022-11-15T03:08:40;7.60;99.90
6256;DHT22;3161;48.794;9.784;2022-11-15T03:11:20;7.60;99.90
6256;DHT22;3161;48.794;9.784;2022-11-15T03:16:23;7.50;99.90
6256;DHT22;3161;48.794;9.784;2022-11-15T03:21:31;7.40;99.90
6256;DHT22;3161;48.794;9.784;2022-11-15T03:24:02;7.40;99.90
6256;DHT22;3161;48.794;9.784;2022-11-15T03:26:30;7.40;99.90
6256;DHT22;3161;48.794;9.784;2022-11-15T03:29:44;7.40;99.90
6256;DHT22;3161;48.794;9.784;2022-11-15T03:31:35;7.40;99.90
6256;DHT22;3161;48.794;9.784;2022-11-15T03:34:21;7.30;99.90
6256;DHT22;3161;48.794;9.784;2022-11-15T03:36:50;7.40;99.90
6256;DHT22;3161;48.794;9.784;2022-11-15T03:39:19;7.30;99.90
6256;DHT22;3161;48.794;9.784;2022-11-15T03:41:56;7.30;99.90
6256;DHT22;3161;48.794;9.784;2022-11-15T03:47:27;7.40;99.90
6256;DHT22;3161;48.794;9.784;2022-11-15T03:49:49;7.40;99.90
6256;DHT22;3161;48.794;9.784;2022-11-15T03:52:17;7.40;99.90
6256;DHT22;3161;48.794;9.784;2022-11-15T03:54:52;7.40;99.90
6256;DHT22;3161;48.794;9.784;2022-11-15T03:57:19;7.40;99.90
6256;DHT22;3161;48.794;9.784;2022-11-15T03:59:46;7.40;99.90
6256;DHT22;3161;48.794;9.784;2022-11-15T04:02:14;7.40;99.90
6256;DHT22;3161;48.794;9.784;2022-11-15T04:04:42;7.40;99.90
6256;DHT22;3161;48.794;9.784;2022-11-15T04:07:09;7.40;99.90
6256;DHT22;3161;48.794;9.784;2022-11-15T04:09:37;7.40;99.90
6256;DHT22;3161;48.794;9.784;2022-11-15T04:12:22;7.40;99.90
6256;DHT22;3161;48.794;9.784;2022-11-15T04:14:51;7.40;99.90
6256;DHT22;3161;48.794;9.784;2022-11-15T04:17:21;7.40;99.90
6256;DHT22;3161;48.794;9.784;2022-11-15T04:19:48;7.40;99.90
6256;DHT22;3161;48.794;9.784;2022-11-15T04:22:33;7.40;99.90
6256;DHT22;3161;48.794;9.784;2022-11-15T04:25:19;7.40;99.90
6256;DHT22;3161;48.794;9.784;2022-11-15T04:27:47;7.40;99.90
6256;DHT22;3161;48.794;9.784;2022-11-15T04:30:15;7.40;99.90
6256;DHT22;3161;48.794;9.784;2022-11-15T04:32:42;7.40;99.90
6256;DHT22;3161;48.794;9.784;2022-11-15T04:35:10;7.40;99.90
6256;DHT22;3161;48.794;9.784;2022-11-15T04:37:38;7.40;99.90
6256;DHT22;3161;48.794;9.784;2022-11-15T04:40:06;7.40;99.90
6256;DHT22;3161;48.794;9.784;2022-11-15T04:42:34;7.50;99.90
6256;DHT22;3161;48.794;9.784;2022-11-15T04:45:02;7.50;99.90
6256;DHT22;3161;48.794;9.784;2022-11-15T04:47:29;7.50;99.90
6256;DHT22;3161;48.794;9.784;2022-11-15T04:49:57;7.50;99.90
6256;DHT22;3161;48.794;9.784;2022-11-15T04:52:24;7.50;99.90
6256;DHT22;3161;48.794;9.784;2022-11-15T04:54:52;7.60;99.90
6256;DHT22;3161;48.794;9.784;2022-11-15T04:57:19;7.60;99.90
6256;DHT22;3161;48.794;9.784;2022-11-15T04:59:47;7.60;99.90
6256;DHT22;3161;48.794;9.784;2022-11-15T05:02:15;7.60;99.90
6256;DHT22;3161;48.794;9.784;2022-11-15T05:04:42;7.60;99.90
6256;DHT22;3161;48.794;9.784;2022-11-15T05:07:10;7.60;99.90
6256;DHT22;3161;48.794;9.784;2022-11-15T05:09:37;7.70;99.90
6256;DHT22;3161;48.794;9.784;2022-11-15T05:12:05;7.70;99.90
6256;DHT22;3161;48.794;9.784;2022-11-15T05:14:33;7.70;99.90
6256;DHT22;3161;48.794;9.784;2022-11-15T05:17:00;7.70;99.90
6256;DHT22;3161;48.794;9.784;2022-11-15T05:19:28;7.70;99.90
6256;DHT22;3161;48.794;9.784;2022-11-15T05:21:56;7.70;99.90
6256;DHT22;3161;48.794;9.784;2022-11-15T05:24:23;7.80;99.90
6256;DHT22;3161;48.794;9.784;2022-11-15T05:26:51;7.80;99.90
6256;DHT22;3161;48.794;9.784;2022-11-15T05:29:18;7.80;99.90
6256;DHT22;3161;48.794;9.784;2022-11-15T05:31:46;7.80;99.90
6256;DHT22;3161;48.794;9.784;2022-11-15T05:34:14;7.80;99.90
6256;DHT22;3161;48.794;9.784;2022-11-15T05:36:42;7.80;99.90
6256;DHT22;3161;48.794;9.784;2022-11-15T05:39:12;7.80;99.90
6256;DHT22;3161;48.794;9.784;2022-11-15T05:41:44;7.80;99.90
6256;DHT22;3161;48.794;9.784;2022-11-15T05:44:15;7.80;99.90
6256;DHT22;3161;48.794;9.784;2022-11-15T05:46:44;7.80;99.90
6256;DHT22;3161;48.794;9.784;2022-11-15T05:49:14;7.80;99.90
6256;DHT22;3161;48.794;9.784;2022-11-15T05:51:43;7.80;99.90
6256;DHT22;3161;48.794;9.784;2022-11-15T05:54:14;7.80;99.90
6256;DHT22;3161;48.794;9.784;2022-11-15T05:56:41;7.80;99.90
6256;DHT22;3161;48.794;9.784;2022-11-15T05:59:09;7.80;99.90
6256;DHT22;3161;48.794;9.784;2022-11-15T06:01:38;7.80;99.90
6256;DHT22;3161;48.794;9.784;2022-11-15T06:04:07;7.80;99.90
6256;DHT22;3161;48.794;9.784;2022-11-15T06:06:34;7.70;99.90
6256;DHT22;3161;48.794;9.784;2022-11-15T06:09:02;7.70;99.90
6256;DHT22;3161;48.794;9.784;2022-11-15T06:11:30;7.70;99.90
6256;DHT22;3161;48.794;9.784;2022-11-15T06:13:57;7.70;99.90
6256;DHT22;3161;48.794;9.784;2022-11-15T06:16:25;7.70;99.90
6256;DHT22;3161;48.794;9.784;2022-11-15T06:18:52;7.70;99.90
6256;DHT22;3161;48.794;9.784;2022-11-15T06:21:20;7.60;99.90
6256;DHT22;3161;48.794;9.784;2022-11-15T06:23:47;7.60;99.90
6256;DHT22;3161;48.794;9.784;2022-11-15T06:26:15;7.60;99.90
6256;DHT22;3161;48.794;9.784;2022-11-15T06:28:42;7.60;99.90
6256;DHT22;3161;48.794;9.784;2022-11-15T06:31:11;7.60;99.90
6256;DHT22;3161;48.794;9.784;2022-11-15T06:33:39;7.50;99.90
6256;DHT22;3161;48.794;9.784;2022-11-15T06:36:09;7.50;99.90
6256;DHT22;3161;48.794;9.784;2022-11-15T06:38:39;7.50;99.90
6256;DHT22;3161;48.794;9.784;2022-11-15T06:41:08;7.50;99.90
6256;DHT22;3161;48.794;9.784;2022-11-15T06:43:37;7.40;99.90
6256;DHT22;3161;48.794;9.784;2022-11-15T06:46:05;7.40;99.90
6256;DHT22;3161;48.794;9.784;2022-11-15T06:48:34;7.40;99.90
6256;DHT22;3161;48.794;9.784;2022-11-15T06:51:04;7.40;99.90
6256;DHT22;3161;48.794;9.784;2022-11-15T06:53:32;7.40;99.90
6256;DHT22;3161;48.794;9.784;2022-11-15T06:56:04;7.30;99.90
6256;DHT22;3161;48.794;9.784;2022-11-15T06:58:33;7.30;99.90
6256;DHT22;3161;48.794;9.784;2022-11-15T07:01:06;7.30;99.90
6256;DHT22;3161;48.794;9.784;2022-11-15T07:03:39;7.30;99.90
6256;DHT22;3161;48.794;9.784;2022-11-15T07:06:07;7.30;99.90
6256;DHT22;3161;48.794;9.784;2022-11-15T07:08:36;7.30;99.90
6256;DHT22;3161;48.794;9.784;2022-11-15T07:11:06;7.30;99.90
6256;DHT22;3161;48.794;9.784;2022-11-15T07:13:35;7.30;99.90
6256;DHT22;3161;48.794;9.784;2022-11-15T07:16:08;7.30;99.90
6256;DHT22;3161;48.794;9.784;2022-11-15T07:18:40;7.30;99.90
6256;DHT22;3161;48.794;9.784;2022-11-15T07:21:09;7.30;99.90
6256;DHT22;3161;48.794;9.784;2022-11-15T07:23:39;7.30;99.90
6256;DHT22;3161;48.794;9.784;2022-11-15T07:26:07;7.40;99.90
6256;DHT22;3161;48.794;9.784;2022-11-15T07:28:35;7.40;99.90
6256;DHT22;3161;48.794;9.784;2022-11-15T07:31:04;7.40;99.90
6256;DHT22;3161;48.794;9.784;2022-11-15T07:33:32;7.40;99.90
6256;DHT22;3161;48.794;9.784;2022-11-15T07:36:01;7.40;99.90
6256;DHT22;3161;48.794;9.784;2022-11-15T07:38:30;7.50;99.90
6256;DHT22;3161;48.794;9.784;2022-11-15T07:40:59;7.50;99.90
6256;DHT22;3161;48.794;9.784;2022-11-15T07:43:27;7.50;99.90
6256;DHT22;3161;48.794;9.784;2022-11-15T07:45:56;7.50;99.90
6256;DHT22;3161;48.794;9.784;2022-11-15T07:48:24;7.50;99.90
6256;DHT22;3161;48.794;9.784;2022-11-15T07:50:51;7.60;99.90
6256;DHT22;3161;48.794;9.784;2022-11-15T07:53:19;7.60;99.90
6256;DHT22;3161;48.794;9.784;2022-11-15T07:55:46;7.60;99.90
6256;DHT22;3161;48.794;9.784;2022-11-15T07:58:14;7.60;99.90
6256;DHT22;3161;48.794;9.784;2022-11-15T08:00:42;7.70;99.90
6256;DHT22;3161;48.794;9.784;2022-11-15T08:03:12;7.70;99.90
6256;DHT22;3161;48.794;9.784;2022-11-15T08:05:41;7.70;99.90
6256;DHT22;3161;48.794;9.784;2022-11-15T08:08:10;7.80;99.90
6256;DHT22;3161;48.794;9.784;2022-11-15T08:10:38;7.80;99.90
6256;DHT22;3161;48.794;9.784;2022-11-15T08:13:10;7.90;99.90
6256;DHT22;3161;48.794;9.784;2022-11-15T08:15:39;7.90;99.90
6256;DHT22;3161;48.794;9.784;2022-11-15T08:18:13;8.00;99.90
6256;DHT22;3161;48.794;9.784;2022-11-15T08:20:38;8.10;99.90
6256;DHT22;3161;48.794;9.784;2022-11-15T08:23:07;8.10;99.90
6256;DHT22;3161;48.794;9.784;2022-11-15T08:25:35;8.10;99.90
6256;DHT22;3161;48.794;9.784;2022-11-15T08:28:05;8.10;99.90
6256;DHT22;3161;48.794;9.784;2022-11-15T08:30:41;8.20;99.90
6256;DHT22;3161;48.794;9.784;2022-11-15T08:33:13;8.20;99.90
6256;DHT22;3161;48.794;9.784;2022-11-15T08:35:42;8.30;99.90
6256;DHT22;3161;48.794;9.784;2022-11-15T08:38:10;8.40;99.90
6256;DHT22;3161;48.794;9.784;2022-11-15T08:40:41;8.40;99.90
6256;DHT22;3161;48.794;9.784;2022-11-15T08:43:09;8.50;99.90
6256;DHT22;3161;48.794;9.784;2022-11-15T08:45:36;8.50;99.90
6256;DHT22;3161;48.794;9.784;2022-11-15T08:48:04;8.60;99.90
6256;DHT22;3161;48.794;9.784;2022-11-15T08:50:32;8.70;99.90
6256;DHT22;3161;48.794;9.784;2022-11-15T08:53:04;8.80;99.90
6256;DHT22;3161;48.794;9.784;2022-11-15T08:55:32;8.90;99.90
6256;DHT22;3161;48.794;9.784;2022-11-15T08:58:00;9.00;99.90
6256;DHT22;3161;48.794;9.784;2022-11-15T09:00:27;9.10;99.90
6256;DHT22;3161;48.794;9.784;2022-11-15T09:02:55;9.20;99.90
6256;DHT22;3161;48.794;9.784;2022-11-15T09:05:22;9.40;99.90
6256;DHT22;3161;48.794;9.784;2022-11-15T09:07:54;9.60;99.90
6256;DHT22;3161;48.794;9.784;2022-11-15T09:10:22;9.70;99.90
6256;DHT22;3161;48.794;9.784;2022-11-15T09:12:50;9.90;99.90
6256;DHT22;3161;48.794;9.784;2022-11-15T09:15:18;10.10;99.90
6256;DHT22;3161;48.794;9.784;2022-11-15T09:17:46;10.20;99.90
6256;DHT22;3161;48.794;9.784;2022-11-15T09:20:14;10.40;99.90
6256;DHT22;3161;48.794;9.784;2022-11-15T09:22:42;10.60;99.90
6256;DHT22;3161;48.794;9.784;2022-11-15T09:25:09;10.80;99.90
6256;DHT22;3161;48.794;9.784;2022-11-15T09:27:37;10.90;99.90
6256;DHT22;3161;48.794;9.784;2022-11-15T09:30:05;11.00;99.90
6256;DHT22;3161;48.794;9.784;2022-11-15T09:32:33;11.20;99.90
6256;DHT22;3161;48.794;9.784;2022-11-15T09:35:00;11.20;99.90
6256;DHT22;3161;48.794;9.784;2022-11-15T09:37:31;11.40;99.90
6256;DHT22;3161;48.794;9.784;2022-11-15T09:39:59;11.60;99.90
6256;DHT22;3161;48.794;9.784;2022-11-15T09:45:13;12.00;99.90
6256;DHT22;3161;48.794;9.784;2022-11-15T09:50:38;12.40;99.90
6256;DHT22;3161;48.794;9.784;2022-11-15T09:53:11;12.60;99.90
6256;DHT22;3161;48.794;9.784;2022-11-15T09:55:48;12.80;99.90
6256;DHT22;3161;48.794;9.784;2022-11-15T09:58:24;12.90;99.90
6256;DHT22;3161;48.794;9.784;2022-11-15T10:00:52;13.00;99.90
6256;DHT22;3161;48.794;9.784;2022-11-15T10:03:33;13.00;99.90
6256;DHT22;3161;48.794;9.784;2022-11-15T10:06:02;13.10;99.90
6256;DHT22;3161;48.794;9.784;2022-11-15T10:11:15;13.20;99.90
6256;DHT22;3161;48.794;9.784;2022-11-15T10:13:45;13.20;99.90
6256;DHT22;3161;48.794;9.784;2022-11-15T10:19:31;13.40;99.90
6256;DHT22;3161;48.794;9.784;2022-11-15T10:22:22;13.50;99.90
6256;DHT22;3161;48.794;9.784;2022-11-15T10:24:47;13.60;99.90
6256;DHT22;3161;48.794;9.784;2022-11-15T10:27:18;13.70;99.90
6256;DHT22;3161;48.794;9.784;2022-11-15T10:29:47;13.80;99.90
6256;DHT22;3161;48.794;9.784;2022-11-15T10:32:20;13.80;99.90
6256;DHT22;3161;48.794;9.784;2022-11-15T10:34:49;13.90;99.90
6256;DHT22;3161;48.794;9.784;2022-11-15T10:37:31;13.90;99.90
6256;DHT22;3161;48.794;9.784;2022-11-15T10:40:04;13.90;99.90
6256;DHT22;3161;48.794;9.784;2022-11-15T10:42:32;14.00;99.90
6256;DHT22;3161;48.794;9.784;2022-11-15T10:44:59;14.10;99.90
6256;DHT22;3161;48.794;9.784;2022-11-15T10:47:31;14.10;99.90
6256;DHT22;3161;48.794;9.784;2022-11-15T10:50:18;14.30;99.90
6256;DHT22;3161;48.794;9.784;2022-11-15T10:52:36;14.40;99.90
6256;DHT22;3161;48.794;9.784;2022-11-15T10:57:54;14.60;99.90
6256;DHT22;3161;48.794;9.784;2022-11-15T11:00:27;14.70;99.90
6256;DHT22;3161;48.794;9.784;2022-11-15T11:03:34;14.80;99.90
6256;DHT22;3161;48.794;9.784;2022-11-15T11:05:39;14.80;99.90
6256;DHT22;3161;48.794;9.784;2022-11-15T11:10:52;15.00;99.90
6256;DHT22;3161;48.794;9.784;2022-11-15T11:21:09;15.20;99.90
6256;DHT22;3161;48.794;9.784;2022-11-15T11:24:18;15.40;99.90
6256;DHT22;3161;48.794;9.784;2022-11-15T11:29:49;15.50;99.90
6256;DHT22;3161;48.794;9.784;2022-11-15T11:38:03;15.80;99.90
6256;DHT22;3161;48.794;9.784;2022-11-15T11:46:08;16.00;99.90
6256;DHT22;3161;48.794;9.784;2022-11-15T11:48:48;16.20;99.90
6256;DHT22;3161;48.794;9.784;2022-11-15T11:54:00;16.30;99.90
6256;DHT22;3161;48.794;9.784;2022-11-15T11:56:32;16.50;99.90
6256;DHT22;3161;48.794;9.784;2022-11-15T11:59:05;16.60;99.90
6256;DHT22;3161;48.794;9.784;2022-11-15T12:01:42;16.70;99.90
6256;DHT22;3161;48.794;9.784;2022-11-15T12:04:26;16.90;99.90
6256;DHT22;3161;48.794;9.784;2022-11-15T12:07:08;17.00;99.90
6256;DHT22;3161;48.794;9.784;2022-11-15T12:09:55;17.20;99.90
6256;DHT22;3161;48.794;9.784;2022-11-15T12:12:52;17.40;99.90
6256;DHT22;3161;48.794;9.784;2022-11-15T12:15:22;17.50;99.90
6256;DHT22;3161;48.794;9.784;2022-11-15T12:17:50;17.70;99.90
6256;DHT22;3161;48.794;9.784;2022-11-15T12:20:30;17.70;99.90
6256;DHT22;3161;48.794;9.784;2022-11-15T12:23:05;17.70;99.90
6256;DHT22;3161;48.794;9.784;2022-11-15T12:25:55;17.60;99.90
6256;DHT22;3161;48.794;9.784;2022-11-15T12:28:41;17.60;99.90
6256;DHT22;3161;48.794;9.784;2022-11-15T12:33:58;17.40;99.90
6256;DHT22;3161;48.794;9.784;2022-11-15T12:36:34;17.40;99.90
6256;DHT22;3161;48.794;9.784;2022-11-15T12:39:09;17.30;99.90
6256;DHT22;3161;48.794;9.784;2022-11-15T12:41:42;17.30;99.90
6256;DHT22;3161;48.794;9.784;2022-11-15T12:52:06;17.20;99.90
6256;DHT22;3161;48.794;9.784;2022-11-15T12:57:31;17.10;99.90
6256;DHT22;3161;48.794;9.784;2022-11-15T13:02:38;16.90;99.90
6256;DHT22;3161;48.794;9.784;2022-11-15T13:10:35;16.70;99.90
6256;DHT22;3161;48.794;9.784;2022-11-15T13:13:04;16.70;99.90
6256;DHT22;3161;48.794;9.784;2022-11-15T13:15:58;16.60;99.90
6256;DHT22;3161;48.794;9.784;2022-11-15T13:18:32;16.50;99.90
6256;DHT22;3161;48.794;9.784;2022-11-15T13:21:01;16.50;99.90
6256;DHT22;3161;48.794;9.784;2022-11-15T13:23:31;16.50;99.90
6256;DHT22;3161;48.794;9.784;2022-11-15T13:26:06;16.40;99.90
6256;DHT22;3161;48.794;9.784;2022-11-15T13:28:46;16.40;99.90
6256;DHT22;3161;48.794;9.784;2022-11-15T13:33:48;16.30;99.90
6256;DHT22;3161;48.794;9.784;2022-11-15T13:36:23;16.30;99.90
6256;DHT22;3161;48.794;9.784;2022-11-15T13:38:57;16.30;99.90
6256;DHT22;3161;48.794;9.784;2022-11-15T13:41:28;16.30;99.90
6256;DHT22;3161;48.794;9.784;2022-11-15T13:43:57;16.20;99.90
6256;DHT22;3161;48.794;9.784;2022-11-15T13:46:32;16.20;99.90
6256;DHT22;3161;48.794;9.784;2022-11-15T13:49:02;16.20;99.90
6256;DHT22;3161;48.794;9.784;2022-11-15T13:51:47;16.10;99.90
6256;DHT22;3161;48.794;9.784;2022-11-15T13:54:24;16.10;99.90
6256;DHT22;3161;48.794;9.784;2022-11-15T13:59:36;16.10;99.90
6256;DHT22;3161;48.794;9.784;2022-11-15T14:02:24;16.10;99.90
6256;DHT22;3161;48.794;9.784;2022-11-15T14:07:30;16.10;99.90
6256;DHT22;3161;48.794;9.784;2022-11-15T14:10:16;16.10;99.90
6256;DHT22;3161;48.794;9.784;2022-11-15T14:12:32;16.10;99.90
6256;DHT22;3161;48.794;9.784;2022-11-15T14:15:47;16.00;99.90
6256;DHT22;3161;48.794;9.784;2022-11-15T14:17:33;16.00;99.90
6256;DHT22;3161;48.794;9.784;2022-11-15T14:20:02;15.90;99.90
6256;DHT22;3161;48.794;9.784;2022-11-15T14:22:30;15.90;99.90
6256;DHT22;3161;48.794;9.784;2022-11-15T14:25:18;15.80;99.90
6256;DHT22;3161;48.794;9.784;2022-11-15T14:28:14;15.70;99.90
6256;DHT22;3161;48.794;9.784;2022-11-15T14:30:33;15.60;99.90
6256;DHT22;3161;48.794;9.784;2022-11-15T14:33:01;15.50;99.90
6256;DHT22;3161;48.794;9.784;2022-11-15T14:35:29;15.40;99.90
6256;DHT22;3161;48.794;9.784;2022-11-15T14:37:58;15.40;99.90
6256;DHT22;3161;48.794;9.784;2022-11-15T14:40:25;15.30;99.90
6256;DHT22;3161;48.794;9.784;2022-11-15T14:42:53;15.20;99.90
6256;DHT22;3161;48.794;9.784;2022-11-15T14:45:21;15.20;99.90
6256;DHT22;3161;48.794;9.784;2022-11-15T14:47:56;15.20;99.90
6256;DHT22;3161;48.794;9.784;2022-11-15T14:50:24;15.10;99.90
6256;DHT22;3161;48.794;9.784;2022-11-15T14:52:54;15.00;99.90
6256;DHT22;3161;48.794;9.784;2022-11-15T14:55:27;14.90;99.90
6256;DHT22;3161;48.794;9.784;2022-11-15T14:57:55;14.90;99.90
6256;DHT22;3161;48.794;9.784;2022-11-15T15:00:23;14.80;99.90
6256;DHT22;3161;48.794;9.784;2022-11-15T15:02:53;14.70;99.90
6256;DHT22;3161;48.794;9.784;2022-11-15T15:05:23;14.60;99.90
6256;DHT22;3161;48.794;9.784;2022-11-15T15:07:51;14.50;99.90
6256;DHT22;3161;48.794;9.784;2022-11-15T15:10:22;14.40;99.90
6256;DHT22;3161;48.794;9.784;2022-11-15T15:12:50;14.40;99.90
6256;DHT22;3161;48.794;9.784;2022-11-15T15:15:24;14.30;99.90
6256;DHT22;3161;48.794;9.784;2022-11-15T15:17:51;14.20;99.90
6256;DHT22;3161;48.794;9.784;2022-11-15T15:20:18;14.20;99.90
6256;DHT22;3161;48.794;9.784;2022-11-15T15:22:46;14.00;99.90
6256;DHT22;3161;48.794;9.784;2022-11-15T15:25:31;14.00;99.90
6256;DHT22;3161;48.794;9.784;2022-11-15T15:27:56;13.90;99.90
6256;DHT22;3161;48.794;9.784;2022-11-15T15:30:25;13.90;99.90
6256;DHT22;3161;48.794;9.784;2022-11-15T15:32:53;13.80;99.90
6256;DHT22;3161;48.794;9.784;2022-11-15T15:35:21;13.70;99.90
6256;DHT22;3161;48.794;9.784;2022-11-15T15:37:49;13.70;99.90
6256;DHT22;3161;48.794;9.784;2022-11-15T15:40:20;13.60;99.90
6256;DHT22;3161;48.794;9.784;2022-11-15T15:42:48;13.50;99.90
6256;DHT22;3161;48.794;9.784;2022-11-15T15:45:17;13.50;99.90
6256;DHT22;3161;48.794;9.784;2022-11-15T15:47:45;13.40;99.90
6256;DHT22;3161;48.794;9.784;2022-11-15T15:50:21;13.40;99.90
6256;DHT22;3161;48.794;9.784;2022-11-15T15:52:49;13.30;99.90
6256;DHT22;3161;48.794;9.784;2022-11-15T15:55:17;13.30;99.90
6256;DHT22;3161;48.794;9.784;2022-11-15T15:57:45;13.20;99.90
6256;DHT22;3161;48.794;9.784;2022-11-15T16:00:13;13.20;99.90
6256;DHT22;3161;48.794;9.784;2022-11-15T16:02:41;13.20;99.90
6256;DHT22;3161;48.794;9.784;2022-11-15T16:05:10;13.10;99.90
6256;DHT22;3161;48.794;9.784;2022-11-15T16:07:39;13.10;99.90
6256;DHT22;3161;48.794;9.784;2022-11-15T16:10:20;13.00;99.90
6256;DHT22;3161;48.794;9.784;2022-11-15T16:12:48;13.00;99.90
6256;DHT22;3161;48.794;9.784;2022-11-15T16:15:16;12.90;99.90
6256;DHT22;3161;48.794;9.784;2022-11-15T16:17:52;12.90;99.90
6256;DHT22;3161;48.794;9.784;2022-11-15T16:23:11;12.80;99.90
6256;DHT22;3161;48.794;9.784;2022-11-15T16:25:47;12.80;99.90
6256;DHT22;3161;48.794;9.784;2022-11-15T16:28:18;12.70;99.90
6256;DHT22;3161;48.794;9.784;2022-11-15T16:30:46;12.70;99.90
6256;DHT22;3161;48.794;9.784;2022-11-15T16:33:14;12.70;99.90
6256;DHT22;3161;48.794;9.784;2022-11-15T16:35:43;12.60;99.90
6256;DHT22;3161;48.794;9.784;2022-11-15T16:38:13;12.60;99.90
6256;DHT22;3161;48.794;9.784;2022-11-15T16:40:41;12.60;99.90
6256;DHT22;3161;48.794;9.784;2022-11-15T16:43:09;12.60;99.90
6256;DHT22;3161;48.794;9.784;2022-11-15T16:45:37;12.60;99.90
6256;DHT22;3161;48.794;9.784;2022-11-15T16:48:05;12.50;99.90
6256;DHT22;3161;48.794;9.784;2022-11-15T16:50:34;12.50;99.90
6256;DHT22;3161;48.794;9.784;2022-11-15T16:53:08;12.50;99.90
6256;DHT22;3161;48.794;9.784;2022-11-15T16:55:35;12.50;99.90
6256;DHT22;3161;48.794;9.784;2022-11-15T16:58:03;12.40;99.90
6256;DHT22;3161;48.794;9.784;2022-11-15T17:00:30;12.40;99.90
6256;DHT22;3161;48.794;9.784;2022-11-15T17:02:58;12.40;99.90
6256;DHT22;3161;48.794;9.784;2022-11-15T17:05:25;12.40;99.90
6256;DHT22;3161;48.794;9.784;2022-11-15T17:07:53;12.40;99.90
6256;DHT22;3161;48.794;9.784;2022-11-15T17:10:22;12.30;99.90
6256;DHT22;3161;48.794;9.784;2022-11-15T17:12:51;12.20;99.90
6256;DHT22;3161;48.794;9.784;2022-11-15T17:15:18;12.20;99.90
6256;DHT22;3161;48.794;9.784;2022-11-15T17:17:51;12.20;99.90
6256;DHT22;3161;48.794;9.784;2022-11-15T17:20:20;12.20;99.90
6256;DHT22;3161;48.794;9.784;2022-11-15T17:22:49;12.20;99.90
6256;DHT22;3161;48.794;9.784;2022-11-15T17:25:16;12.20;99.90
6256;DHT22;3161;48.794;9.784;2022-11-15T17:27:44;12.10;99.90
6256;DHT22;3161;48.794;9.784;2022-11-15T17:30:13;12.10;99.90
6256;DHT22;3161;48.794;9.784;2022-11-15T17:32:42;12.10;99.90
6256;DHT22;3161;48.794;9.784;2022-11-15T17:35:11;12.10;99.90
6256;DHT22;3161;48.794;9.784;2022-11-15T17:37:39;12.10;99.90
6256;DHT22;3161;48.794;9.784;2022-11-15T17:40:07;12.10;99.90
6256;DHT22;3161;48.794;9.784;2022-11-15T17:42:35;12.00;99.90
6256;DHT22;3161;48.794;9.784;2022-11-15T17:45:03;12.00;99.90
6256;DHT22;3161;48.794;9.784;2022-11-15T17:47:30;12.00;99.90
6256;DHT22;3161;48.794;9.784;2022-11-15T17:49:58;11.90;99.90
6256;DHT22;3161;48.794;9.784;2022-11-15T17:52:25;12.00;99.90
6256;DHT22;3161;48.794;9.784;2022-11-15T17:54:53;11.90;99.90
6256;DHT22;3161;48.794;9.784;2022-11-15T17:57:20;11.90;99.90
6256;DHT22;3161;48.794;9.784;2022-11-15T17:59:48;11.90;99.90
6256;DHT22;3161;48.794;9.784;2022-11-15T18:02:15;11.80;99.90
6256;DHT22;3161;48.794;9.784;2022-11-15T18:04:43;11.80;99.90
6256;DHT22;3161;48.794;9.784;2022-11-15T18:07:10;11.80;99.90
6256;DHT22;3161;48.794;9.784;2022-11-15T18:09:39;11.80;99.90
6256;DHT22;3161;48.794;9.784;2022-11-15T18:12:09;11.80;99.90